sensor_id;sensor_type;location;lat;lon;timestamp;temperature;humidity
19037;DHT22;9651;49.138;8.900;2023-05-24T00:01:02;15.20;99.90
19037;DHT22;9651;49.138;8.900;2023-05-24T00:05:04;15.10;99.90
19037;DHT22;9651;49.138;8.900;2023-05-24T00:09:07;15.10;99.90
19037;DHT22;9651;49.138;8.900;2023-05-24T00:13:10;15.10;99.90
19037;DHT22;9651;49.138;8.900;2023-05-24T00:17:12;15.00;99.90
19037;DHT22;9651;49.138;8.900;2023-05-24T00:21:14;14.90;99.90
19037;DHT22;9651;49.138;8.900;2023-05-24T00:25:16;14.90;99.90
19037;DHT22;9651;49.138;8.900;2023-05-24T00:29:19;14.80;99.90
19037;DHT22;9651;49.138;8.900;2023-05-24T00:33:21;14.80;99.90
19037;DHT22;9651;49.138;8.900;2023-05-24T00:37:23;14.80;99.90
19037;DHT22;9651;49.138;8.900;2023-05-24T00:41:26;14.70;99.90
19037;DHT22;9651;49.138;8.900;2023-05-24T00:45:29;14.60;99.90
19037;DHT22;9651;49.138;8.900;2023-05-24T00:49:31;14.60;99.90
19037;DHT22;9651;49.138;8.900;2023-05-24T00:53:34;14.50;99.90
19037;DHT22;9651;49.138;8.900;2023-05-24T00:57:37;14.40;99.90
19037;DHT22;9651;49.138;8.900;2023-05-24T01:01:41;14.40;99.90
19037;DHT22;9651;49.138;8.900;2023-05-24T01:05:48;14.30;99.90
19037;DHT22;9651;49.138;8.900;2023-05-24T01:10:02;14.30;99.90
19037;DHT22;9651;49.138;8.900;2023-05-24T01:14:13;14.20;99.90
19037;DHT22;9651;49.138;8.900;2023-05-24T01:18:26;14.20;99.90
19037;DHT22;9651;49.138;8.900;2023-05-24T01:27:20;14.10;99.90
19037;DHT22;9651;49.138;8.900;2023-05-24T01:31:25;14.00;99.90
19037;DHT22;9651;49.138;8.900;2023-05-24T01:35:27;14.00;99.90
19037;DHT22;9651;49.138;8.900;2023-05-24T01:39:29;14.00;99.90
19037;DHT22;9651;49.138;8.900;2023-05-24T01:43:36;13.90;99.90
19037;DHT22;9651;49.138;8.900;2023-05-24T01:47:46;13.80;99.90
19037;DHT22;9651;49.138;8.900;2023-05-24T01:51:58;13.80;99.90
19037;DHT22;9651;49.138;8.900;2023-05-24T01:56:03;13.90;99.90
19037;DHT22;9651;49.138;8.900;2023-05-24T02:00:09;13.80;99.90
19037;DHT22;9651;49.138;8.900;2023-05-24T02:04:15;13.80;99.90
19037;DHT22;9651;49.138;8.900;2023-05-24T02:08:17;13.80;99.90
19037;DHT22;9651;49.138;8.900;2023-05-24T02:12:19;13.80;99.90
19037;DHT22;9651;49.138;8.900;2023-05-24T02:16:22;13.80;99.90
19037;DHT22;9651;49.138;8.900;2023-05-24T02:20:26;13.80;99.90
19037;DHT22;9651;49.138;8.900;2023-05-24T02:24:30;13.70;99.90
19037;DHT22;9651;49.138;8.900;2023-05-24T02:28:32;13.70;99.90
19037;DHT22;9651;49.138;8.900;2023-05-24T02:32:35;13.70;99.90
19037;DHT22;9651;49.138;8.900;2023-05-24T02:36:37;13.70;99.90
19037;DHT22;9651;49.138;8.900;2023-05-24T02:40:39;13.60;99.90
19037;DHT22;9651;49.138;8.900;2023-05-24T02:44:40;13.60;99.90
19037;DHT22;9651;49.138;8.900;2023-05-24T02:48:44;13.50;99.90
19037;DHT22;9651;49.138;8.900;2023-05-24T02:52:46;13.50;99.90
19037;DHT22;9651;49.138;8.900;2023-05-24T02:56:48;13.50;99.90
19037;DHT22;9651;49.138;8.900;2023-05-24T03:00:51;13.50;99.90
19037;DHT22;9651;49.138;8.900;2023-05-24T03:04:56;13.40;99.90
19037;DHT22;9651;49.138;8.900;2023-05-24T03:08:58;13.20;99.90
19037;DHT22;9651;49.138;8.900;2023-05-24T03:13:00;13.30;99.90
19037;DHT22;9651;49.138;8.900;2023-05-24T03:17:03;13.30;99.90
19037;DHT22;9651;49.138;8.900;2023-05-24T03:21:06;13.30;99.90
19037;DHT22;9651;49.138;8.900;2023-05-24T03:25:08;13.20;99.90
19037;DHT22;9651;49.138;8.900;2023-05-24T03:29:10;13.20;99.90
19037;DHT22;9651;49.138;8.900;2023-05-24T03:33:15;13.20;99.90
19037;DHT22;9651;49.138;8.900;2023-05-24T03:37:18;13.20;99.90
19037;DHT22;9651;49.138;8.900;2023-05-24T03:41:21;13.20;99.90
19037;DHT22;9651;49.138;8.900;2023-05-24T03:45:23;13.30;99.90
19037;DHT22;9651;49.138;8.900;2023-05-24T03:49:26;13.30;99.90
19037;DHT22;9651;49.138;8.900;2023-05-24T03:53:30;13.30;99.90
19037;DHT22;9651;49.138;8.900;2023-05-24T03:57:34;13.30;99.90
19037;DHT22;9651;49.138;8.900;2023-05-24T04:01:35;13.30;99.90
19037;DHT22;9651;49.138;8.900;2023-05-24T04:05:37;13.30;99.90
19037;DHT22;9651;49.138;8.900;2023-05-24T04:09:41;13.30;99.90
19037;DHT22;9651;49.138;8.900;2023-05-24T04:13:43;13.30;99.90
19037;DHT22;9651;49.138;8.900;2023-05-24T04:17:45;13.30;99.90
19037;DHT22;9651;49.138;8.900;2023-05-24T04:21:49;13.30;99.90
19037;DHT22;9651;49.138;8.900;2023-05-24T04:25:52;13.30;99.90
19037;DHT22;9651;49.138;8.900;2023-05-24T04:29:54;13.30;99.90
19037;DHT22;9651;49.138;8.900;2023-05-24T04:33:56;13.30;99.90
19037;DHT22;9651;49.138;8.900;2023-05-24T04:37:59;13.30;99.90
19037;DHT22;9651;49.138;8.900;2023-05-24T04:42:02;13.30;99.90
19037;DHT22;9651;49.138;8.900;2023-05-24T04:46:04;13.30;99.90
19037;DHT22;9651;49.138;8.900;2023-05-24T04:50:06;13.30;99.90
19037;DHT22;9651;49.138;8.900;2023-05-24T04:54:08;13.40;99.90
19037;DHT22;9651;49.138;8.900;2023-05-24T04:58:11;13.40;99.90
19037;DHT22;9651;49.138;8.900;2023-05-24T05:02:13;13.40;99.90
19037;DHT22;9651;49.138;8.900;2023-05-24T05:06:15;13.40;99.90
19037;DHT22;9651;49.138;8.900;2023-05-24T05:10:17;13.50;99.90
19037;DHT22;9651;49.138;8.900;2023-05-24T05:14:20;13.50;99.90
19037;DHT22;9651;49.138;8.900;2023-05-24T05:18:22;13.50;99.90
19037;DHT22;9651;49.138;8.900;2023-05-24T05:22:24;13.60;99.90
19037;DHT22;9651;49.138;8.900;2023-05-24T05:26:26;13.50;99.90
19037;DHT22;9651;49.138;8.900;2023-05-24T05:30:29;13.50;99.90
19037;DHT22;9651;49.138;8.900;2023-05-24T05:34:31;13.60;99.90
19037;DHT22;9651;49.138;8.900;2023-05-24T05:38:33;13.70;99.90
19037;DHT22;9651;49.138;8.900;2023-05-24T05:42:35;13.70;99.90
19037;DHT22;9651;49.138;8.900;2023-05-24T05:46:38;13.80;99.90
19037;DHT22;9651;49.138;8.900;2023-05-24T05:50:43;13.90;99.90
19037;DHT22;9651;49.138;8.900;2023-05-24T05:54:45;14.00;99.90
19037;DHT22;9651;49.138;8.900;2023-05-24T05:58:46;14.10;99.90
19037;DHT22;9651;49.138;8.900;2023-05-24T06:02:50;14.20;99.90
19037;DHT22;9651;49.138;8.900;2023-05-24T06:06:51;14.30;99.90
19037;DHT22;9651;49.138;8.900;2023-05-24T06:10:53;14.40;99.90
19037;DHT22;9651;49.138;8.900;2023-05-24T06:14:55;14.40;99.90
19037;DHT22;9651;49.138;8.900;2023-05-24T06:19:00;14.60;99.90
19037;DHT22;9651;49.138;8.900;2023-05-24T06:23:02;14.80;99.90
19037;DHT22;9651;49.138;8.900;2023-05-24T06:27:04;14.90;99.90
19037;DHT22;9651;49.138;8.900;2023-05-24T06:31:06;15.10;99.90
19037;DHT22;9651;49.138;8.900;2023-05-24T06:35:10;15.40;99.90
19037;DHT22;9651;49.138;8.900;2023-05-24T06:39:12;15.50;99.90
19037;DHT22;9651;49.138;8.900;2023-05-24T06:43:14;15.70;99.90
19037;DHT22;9651;49.138;8.900;2023-05-24T06:47:17;15.70;99.90
19037;DHT22;9651;49.138;8.900;2023-05-24T06:51:20;15.70;99.90
19037;DHT22;9651;49.138;8.900;2023-05-24T06:55:22;15.70;99.90
19037;DHT22;9651;49.138;8.900;2023-05-24T06:59:24;15.60;99.90
19037;DHT22;9651;49.138;8.900;2023-05-24T07:03:26;15.60;99.90
19037;DHT22;9651;49.138;8.900;2023-05-24T07:07:30;15.70;99.90
19037;DHT22;9651;49.138;8.900;2023-05-24T07:11:31;15.90;99.90
19037;DHT22;9651;49.138;8.900;2023-05-24T07:15:33;16.10;99.90
19037;DHT22;9651;49.138;8.900;2023-05-24T07:19:35;16.70;99.90
19037;DHT22;9651;49.138;8.900;2023-05-24T07:23:39;17.00;99.90
19037;DHT22;9651;49.138;8.900;2023-05-24T07:27:40;17.10;99.90
19037;DHT22;9651;49.138;8.900;2023-05-24T07:31:42;17.20;99.90
19037;DHT22;9651;49.138;8.900;2023-05-24T07:35:44;17.30;99.90
19037;DHT22;9651;49.138;8.900;2023-05-24T07:39:52;17.70;99.90
19037;DHT22;9651;49.138;8.900;2023-05-24T07:43:54;18.30;99.90
19037;DHT22;9651;49.138;8.900;2023-05-24T07:47:56;18.50;99.90
19037;DHT22;9651;49.138;8.900;2023-05-24T07:51:58;18.40;99.90
19037;DHT22;9651;49.138;8.900;2023-05-24T07:56:01;18.30;99.90
19037;DHT22;9651;49.138;8.900;2023-05-24T08:00:04;18.40;99.90
19037;DHT22;9651;49.138;8.900;2023-05-24T08:04:13;18.70;99.90
19037;DHT22;9651;49.138;8.900;2023-05-24T08:08:15;19.10;99.90
19037;DHT22;9651;49.138;8.900;2023-05-24T08:12:19;19.40;99.90
19037;DHT22;9651;49.138;8.900;2023-05-24T08:16:21;19.30;99.90
19037;DHT22;9651;49.138;8.900;2023-05-24T08:20:23;18.90;99.90
19037;DHT22;9651;49.138;8.900;2023-05-24T08:24:24;18.70;99.90
19037;DHT22;9651;49.138;8.900;2023-05-24T08:28:28;18.50;99.90
19037;DHT22;9651;49.138;8.900;2023-05-24T08:32:30;18.00;99.90
19037;DHT22;9651;49.138;8.900;2023-05-24T08:36:32;18.00;99.90
19037;DHT22;9651;49.138;8.900;2023-05-24T08:40:34;18.00;99.90
19037;DHT22;9651;49.138;8.900;2023-05-24T08:44:40;18.00;99.90
19037;DHT22;9651;49.138;8.900;2023-05-24T08:48:46;17.50;99.90
19037;DHT22;9651;49.138;8.900;2023-05-24T08:52:48;17.60;99.90
19037;DHT22;9651;49.138;8.900;2023-05-24T08:56:52;17.80;99.90
19037;DHT22;9651;49.138;8.900;2023-05-24T09:00:55;18.00;99.90
19037;DHT22;9651;49.138;8.900;2023-05-24T09:04:57;18.30;99.90
19037;DHT22;9651;49.138;8.900;2023-05-24T09:09:02;18.50;99.90
19037;DHT22;9651;49.138;8.900;2023-05-24T09:13:04;18.90;99.90
19037;DHT22;9651;49.138;8.900;2023-05-24T09:17:08;19.50;99.90
19037;DHT22;9651;49.138;8.900;2023-05-24T09:21:12;20.20;99.90
19037;DHT22;9651;49.138;8.900;2023-05-24T09:25:14;20.60;99.90
19037;DHT22;9651;49.138;8.900;2023-05-24T09:29:21;20.70;99.90
19037;DHT22;9651;49.138;8.900;2023-05-24T09:33:29;20.20;99.90
19037;DHT22;9651;49.138;8.900;2023-05-24T09:37:31;20.50;99.90
19037;DHT22;9651;49.138;8.900;2023-05-24T09:41:38;20.60;99.90
19037;DHT22;9651;49.138;8.900;2023-05-24T09:45:45;20.40;99.90
19037;DHT22;9651;49.138;8.900;2023-05-24T09:49:51;19.70;99.90
19037;DHT22;9651;49.138;8.900;2023-05-24T09:53:55;20.00;99.90
19037;DHT22;9651;49.138;8.900;2023-05-24T09:58:02;20.00;99.90
19037;DHT22;9651;49.138;8.900;2023-05-24T10:02:08;20.10;99.90
19037;DHT22;9651;49.138;8.900;2023-05-24T10:06:12;20.60;99.10
19037;DHT22;9651;49.138;8.900;2023-05-24T10:10:14;21.50;98.60
19037;DHT22;9651;49.138;8.900;2023-05-24T10:14:16;23.00;97.40
19037;DHT22;9651;49.138;8.900;2023-05-24T10:18:19;24.10;94.70
19037;DHT22;9651;49.138;8.900;2023-05-24T10:22:23;24.50;93.70
19037;DHT22;9651;49.138;8.900;2023-05-24T10:26:28;24.00;93.50
19037;DHT22;9651;49.138;8.900;2023-05-24T10:30:35;23.20;92.40
19037;DHT22;9651;49.138;8.900;2023-05-24T10:34:38;22.80;93.20
19037;DHT22;9651;49.138;8.900;2023-05-24T10:38:42;23.60;93.00
19037;DHT22;9651;49.138;8.900;2023-05-24T10:42:47;24.20;92.30
19037;DHT22;9651;49.138;8.900;2023-05-24T10:47:01;23.90;91.30
19037;DHT22;9651;49.138;8.900;2023-05-24T10:51:32;24.70;90.80
19037;DHT22;9651;49.138;8.900;2023-05-24T10:55:50;25.90;88.60
19037;DHT22;9651;49.138;8.900;2023-05-24T10:59:55;26.30;83.90
19037;DHT22;9651;49.138;8.900;2023-05-24T11:04:08;27.30;82.20
19037;DHT22;9651;49.138;8.900;2023-05-24T11:08:11;28.30;77.70
19037;DHT22;9651;49.138;8.900;2023-05-24T11:12:15;28.30;75.80
19037;DHT22;9651;49.138;8.900;2023-05-24T11:16:32;28.90;72.60
19037;DHT22;9651;49.138;8.900;2023-05-24T11:20:35;29.40;71.70
19037;DHT22;9651;49.138;8.900;2023-05-24T11:24:39;29.30;69.60
19037;DHT22;9651;49.138;8.900;2023-05-24T11:28:42;27.70;69.00
19037;DHT22;9651;49.138;8.900;2023-05-24T11:32:46;26.20;72.90
19037;DHT22;9651;49.138;8.900;2023-05-24T11:36:49;23.90;76.90
19037;DHT22;9651;49.138;8.900;2023-05-24T11:40:52;23.60;79.30
19037;DHT22;9651;49.138;8.900;2023-05-24T11:44:56;24.40;77.90
19037;DHT22;9651;49.138;8.900;2023-05-24T11:48:58;24.60;79.60
19037;DHT22;9651;49.138;8.900;2023-05-24T11:53:03;24.60;77.10
19037;DHT22;9651;49.138;8.900;2023-05-24T11:57:06;25.50;75.00
19037;DHT22;9651;49.138;8.900;2023-05-24T12:01:24;27.10;73.70
19037;DHT22;9651;49.138;8.900;2023-05-24T12:05:26;28.10;69.50
19037;DHT22;9651;49.138;8.900;2023-05-24T12:09:31;29.10;68.30
19037;DHT22;9651;49.138;8.900;2023-05-24T12:13:33;29.90;63.00
19037;DHT22;9651;49.138;8.900;2023-05-24T12:17:37;28.60;63.10
19037;DHT22;9651;49.138;8.900;2023-05-24T12:21:40;28.10;65.80
19037;DHT22;9651;49.138;8.900;2023-05-24T12:25:42;27.10;66.60
19037;DHT22;9651;49.138;8.900;2023-05-24T12:29:44;28.20;66.40
19037;DHT22;9651;49.138;8.900;2023-05-24T12:33:49;29.50;64.20
19037;DHT22;9651;49.138;8.900;2023-05-24T12:37:57;29.20;62.90
19037;DHT22;9651;49.138;8.900;2023-05-24T12:42:01;29.30;63.70
19037;DHT22;9651;49.138;8.900;2023-05-24T12:46:03;31.50;61.40
19037;DHT22;9651;49.138;8.900;2023-05-24T12:50:07;31.90;59.00
19037;DHT22;9651;49.138;8.900;2023-05-24T12:54:09;30.40;59.80
19037;DHT22;9651;49.138;8.900;2023-05-24T12:58:11;29.50;59.10
19037;DHT22;9651;49.138;8.900;2023-05-24T13:02:15;28.20;61.00
19037;DHT22;9651;49.138;8.900;2023-05-24T13:06:19;26.80;61.00
19037;DHT22;9651;49.138;8.900;2023-05-24T13:10:21;25.00;64.80
19037;DHT22;9651;49.138;8.900;2023-05-24T13:14:23;25.30;64.80
19037;DHT22;9651;49.138;8.900;2023-05-24T13:18:24;27.70;63.20
19037;DHT22;9651;49.138;8.900;2023-05-24T13:22:28;28.60;59.70
19037;DHT22;9651;49.138;8.900;2023-05-24T13:26:30;29.80;58.80
19037;DHT22;9651;49.138;8.900;2023-05-24T13:30:36;30.70;58.90
19037;DHT22;9651;49.138;8.900;2023-05-24T13:34:39;28.80;58.60
19037;DHT22;9651;49.138;8.900;2023-05-24T13:38:42;26.90;59.90
19037;DHT22;9651;49.138;8.900;2023-05-24T13:42:44;25.80;61.50
19037;DHT22;9651;49.138;8.900;2023-05-24T13:46:46;24.60;63.60
19037;DHT22;9651;49.138;8.900;2023-05-24T13:50:48;23.90;65.00
19037;DHT22;9651;49.138;8.900;2023-05-24T13:54:51;23.70;64.80
19037;DHT22;9651;49.138;8.900;2023-05-24T13:58:53;24.70;67.60
19037;DHT22;9651;49.138;8.900;2023-05-24T14:02:56;25.70;65.70
19037;DHT22;9651;49.138;8.900;2023-05-24T14:06:58;26.60;64.60
19037;DHT22;9651;49.138;8.900;2023-05-24T14:11:01;26.40;63.80
19037;DHT22;9651;49.138;8.900;2023-05-24T14:15:03;24.90;65.40
19037;DHT22;9651;49.138;8.900;2023-05-24T14:19:06;24.00;66.50
19037;DHT22;9651;49.138;8.900;2023-05-24T14:23:08;23.10;67.00
19037;DHT22;9651;49.138;8.900;2023-05-24T14:27:11;22.50;67.80
19037;DHT22;9651;49.138;8.900;2023-05-24T14:31:13;22.20;67.70
19037;DHT22;9651;49.138;8.900;2023-05-24T14:35:15;21.80;68.60
19037;DHT22;9651;49.138;8.900;2023-05-24T14:39:17;21.70;69.60
19037;DHT22;9651;49.138;8.900;2023-05-24T14:43:20;21.30;71.00
19037;DHT22;9651;49.138;8.900;2023-05-24T14:47:22;21.00;73.30
19037;DHT22;9651;49.138;8.900;2023-05-24T14:51:24;20.90;73.90
19037;DHT22;9651;49.138;8.900;2023-05-24T14:55:26;20.80;73.80
19037;DHT22;9651;49.138;8.900;2023-05-24T14:59:29;20.70;74.40
19037;DHT22;9651;49.138;8.900;2023-05-24T15:03:31;20.40;74.90
19037;DHT22;9651;49.138;8.900;2023-05-24T15:07:33;20.10;74.80
19037;DHT22;9651;49.138;8.900;2023-05-24T15:11:34;19.90;75.20
19037;DHT22;9651;49.138;8.900;2023-05-24T15:15:38;19.90;75.90
19037;DHT22;9651;49.138;8.900;2023-05-24T15:19:41;19.90;75.30
19037;DHT22;9651;49.138;8.900;2023-05-24T15:23:43;19.80;76.00
19037;DHT22;9651;49.138;8.900;2023-05-24T15:27:45;19.80;75.80
19037;DHT22;9651;49.138;8.900;2023-05-24T15:31:48;19.70;76.20
19037;DHT22;9651;49.138;8.900;2023-05-24T15:35:50;19.60;75.80
19037;DHT22;9651;49.138;8.900;2023-05-24T15:39:52;19.40;75.10
19037;DHT22;9651;49.138;8.900;2023-05-24T15:43:54;19.50;75.20
19037;DHT22;9651;49.138;8.900;2023-05-24T15:47:57;19.50;74.80
19037;DHT22;9651;49.138;8.900;2023-05-24T15:51:59;19.70;75.60
19037;DHT22;9651;49.138;8.900;2023-05-24T15:56:01;19.80;74.80
19037;DHT22;9651;49.138;8.900;2023-05-24T16:00:03;20.00;75.00
19037;DHT22;9651;49.138;8.900;2023-05-24T16:04:14;20.10;73.60
19037;DHT22;9651;49.138;8.900;2023-05-24T16:08:16;20.00;73.90
19037;DHT22;9651;49.138;8.900;2023-05-24T16:12:18;19.90;73.70
19037;DHT22;9651;49.138;8.900;2023-05-24T16:16:19;19.90;72.90
19037;DHT22;9651;49.138;8.900;2023-05-24T16:20:24;19.80;74.70
19037;DHT22;9651;49.138;8.900;2023-05-24T16:24:26;19.70;71.70
19037;DHT22;9651;49.138;8.900;2023-05-24T16:28:28;19.70;74.90
19037;DHT22;9651;49.138;8.900;2023-05-24T16:32:30;19.80;75.30
19037;DHT22;9651;49.138;8.900;2023-05-24T16:36:33;19.90;75.30
19037;DHT22;9651;49.138;8.900;2023-05-24T16:40:35;19.80;74.00
19037;DHT22;9651;49.138;8.900;2023-05-24T16:44:36;19.70;72.90
19037;DHT22;9651;49.138;8.900;2023-05-24T16:48:38;19.30;73.90
19037;DHT22;9651;49.138;8.900;2023-05-24T16:52:42;19.30;74.60
19037;DHT22;9651;49.138;8.900;2023-05-24T16:56:43;19.20;76.00
19037;DHT22;9651;49.138;8.900;2023-05-24T17:00:47;19.20;74.30
19037;DHT22;9651;49.138;8.900;2023-05-24T17:04:49;19.10;73.60
19037;DHT22;9651;49.138;8.900;2023-05-24T17:08:53;19.00;74.60
19037;DHT22;9651;49.138;8.900;2023-05-24T17:12:55;18.90;75.60
19037;DHT22;9651;49.138;8.900;2023-05-24T17:16:57;18.90;75.80
19037;DHT22;9651;49.138;8.900;2023-05-24T17:21:00;18.90;76.90
19037;DHT22;9651;49.138;8.900;2023-05-24T17:25:04;18.80;76.40
19037;DHT22;9651;49.138;8.900;2023-05-24T17:29:06;18.70;76.00
19037;DHT22;9651;49.138;8.900;2023-05-24T17:33:08;18.60;76.20
19037;DHT22;9651;49.138;8.900;2023-05-24T17:37:10;18.50;76.60
19037;DHT22;9651;49.138;8.900;2023-05-24T17:41:13;18.40;76.30
19037;DHT22;9651;49.138;8.900;2023-05-24T17:45:15;18.30;77.20
19037;DHT22;9651;49.138;8.900;2023-05-24T17:49:17;18.30;77.60
19037;DHT22;9651;49.138;8.900;2023-05-24T17:53:19;18.20;78.30
19037;DHT22;9651;49.138;8.900;2023-05-24T17:57:22;18.20;78.80
19037;DHT22;9651;49.138;8.900;2023-05-24T18:01:25;18.10;79.10
19037;DHT22;9651;49.138;8.900;2023-05-24T18:05:28;17.90;79.70
19037;DHT22;9651;49.138;8.900;2023-05-24T18:09:31;17.70;80.50
19037;DHT22;9651;49.138;8.900;2023-05-24T18:13:36;17.60;80.30
19037;DHT22;9651;49.138;8.900;2023-05-24T18:17:37;17.50;80.90
19037;DHT22;9651;49.138;8.900;2023-05-24T18:21:39;17.50;81.60
19037;DHT22;9651;49.138;8.900;2023-05-24T18:25:41;17.40;82.10
19037;DHT22;9651;49.138;8.900;2023-05-24T18:29:45;17.30;82.90
19037;DHT22;9651;49.138;8.900;2023-05-24T18:33:47;17.20;82.50
19037;DHT22;9651;49.138;8.900;2023-05-24T18:37:49;17.10;82.60
19037;DHT22;9651;49.138;8.900;2023-05-24T18:41:51;17.00;83.40
19037;DHT22;9651;49.138;8.900;2023-05-24T18:45:54;17.00;83.40
19037;DHT22;9651;49.138;8.900;2023-05-24T18:49:56;17.00;83.70
19037;DHT22;9651;49.138;8.900;2023-05-24T18:53:59;16.90;84.10
19037;DHT22;9651;49.138;8.900;2023-05-24T18:58:00;16.90;84.90
19037;DHT22;9651;49.138;8.900;2023-05-24T19:02:05;16.90;85.50
19037;DHT22;9651;49.138;8.900;2023-05-24T19:06:07;16.90;86.50
19037;DHT22;9651;49.138;8.900;2023-05-24T19:10:09;16.80;87.20
19037;DHT22;9651;49.138;8.900;2023-05-24T19:14:11;16.70;87.90
19037;DHT22;9651;49.138;8.900;2023-05-24T19:18:14;16.70;89.10
19037;DHT22;9651;49.138;8.900;2023-05-24T19:22:16;16.60;89.30
19037;DHT22;9651;49.138;8.900;2023-05-24T19:26:18;16.50;90.00
19037;DHT22;9651;49.138;8.900;2023-05-24T19:30:20;16.40;90.30
19037;DHT22;9651;49.138;8.900;2023-05-24T19:34:23;16.30;90.40
19037;DHT22;9651;49.138;8.900;2023-05-24T19:38:28;16.20;90.60
19037;DHT22;9651;49.138;8.900;2023-05-24T19:42:30;16.20;90.70
19037;DHT22;9651;49.138;8.900;2023-05-24T19:46:31;16.10;90.90
19037;DHT22;9651;49.138;8.900;2023-05-24T19:50:35;16.00;91.20
19037;DHT22;9651;49.138;8.900;2023-05-24T19:54:38;15.90;91.90
19037;DHT22;9651;49.138;8.900;2023-05-24T19:58:40;15.80;92.30
19037;DHT22;9651;49.138;8.900;2023-05-24T20:02:43;15.80;92.50
19037;DHT22;9651;49.138;8.900;2023-05-24T20:06:46;15.70;92.60
19037;DHT22;9651;49.138;8.900;2023-05-24T20:10:48;15.60;92.80
19037;DHT22;9651;49.138;8.900;2023-05-24T20:14:50;15.50;93.20
19037;DHT22;9651;49.138;8.900;2023-05-24T20:18:52;15.40;93.50
19037;DHT22;9651;49.138;8.900;2023-05-24T20:22:56;15.30;93.80
19037;DHT22;9651;49.138;8.900;2023-05-24T20:26:57;15.20;94.00
19037;DHT22;9651;49.138;8.900;2023-05-24T20:30:59;15.20;93.80
19037;DHT22;9651;49.138;8.900;2023-05-24T20:35:01;15.10;93.70
19037;DHT22;9651;49.138;8.900;2023-05-24T20:39:04;15.00;93.80
19037;DHT22;9651;49.138;8.900;2023-05-24T20:43:07;14.90;93.60
19037;DHT22;9651;49.138;8.900;2023-05-24T20:47:09;14.80;93.40
19037;DHT22;9651;49.138;8.900;2023-05-24T20:51:11;14.70;93.30
19037;DHT22;9651;49.138;8.900;2023-05-24T20:55:14;14.60;93.20
19037;DHT22;9651;49.138;8.900;2023-05-24T20:59:18;14.60;93.20
19037;DHT22;9651;49.138;8.900;2023-05-24T21:03:20;14.50;93.40
19037;DHT22;9651;49.138;8.900;2023-05-24T21:07:22;14.50;93.40
19037;DHT22;9651;49.138;8.900;2023-05-24T21:11:25;14.40;93.50
19037;DHT22;9651;49.138;8.900;2023-05-24T21:15:27;14.30;93.60
19037;DHT22;9651;49.138;8.900;2023-05-24T21:19:29;14.30;93.80
19037;DHT22;9651;49.138;8.900;2023-05-24T21:23:31;14.20;94.00
19037;DHT22;9651;49.138;8.900;2023-05-24T21:27:34;14.10;94.40
19037;DHT22;9651;49.138;8.900;2023-05-24T21:31:35;13.90;94.70
19037;DHT22;9651;49.138;8.900;2023-05-24T21:35:37;13.80;94.90
19037;DHT22;9651;49.138;8.900;2023-05-24T21:39:39;13.70;95.00
19037;DHT22;9651;49.138;8.900;2023-05-24T21:43:44;13.60;95.20
19037;DHT22;9651;49.138;8.900;2023-05-24T21:47:46;13.50;95.40
19037;DHT22;9651;49.138;8.900;2023-05-24T21:51:48;13.40;95.60
19037;DHT22;9651;49.138;8.900;2023-05-24T21:55:50;13.40;95.80
19037;DHT22;9651;49.138;8.900;2023-05-24T21:59:53;13.40;96.10
19037;DHT22;9651;49.138;8.900;2023-05-24T22:03:55;13.40;96.30
19037;DHT22;9651;49.138;8.900;2023-05-24T22:07:57;13.30;96.40
19037;DHT22;9651;49.138;8.900;2023-05-24T22:11:59;13.30;96.50
19037;DHT22;9651;49.138;8.900;2023-05-24T22:16:02;13.20;96.80
19037;DHT22;9651;49.138;8.900;2023-05-24T22:20:05;13.10;97.10
19037;DHT22;9651;49.138;8.900;2023-05-24T22:24:08;13.10;97.40
19037;DHT22;9651;49.138;8.900;2023-05-24T22:28:10;13.00;97.60
19037;DHT22;9651;49.138;8.900;2023-05-24T22:32:13;13.00;98.30
19037;DHT22;9651;49.138;8.900;2023-05-24T22:36:15;12.80;98.80
19037;DHT22;9651;49.138;8.900;2023-05-24T22:40:18;12.80;99.20
19037;DHT22;9651;49.138;8.900;2023-05-24T22:44:20;12.70;99.90
19037;DHT22;9651;49.138;8.900;2023-05-24T22:48:23;12.60;99.90
19037;DHT22;9651;49.138;8.900;2023-05-24T22:52:26;12.50;99.90
19037;DHT22;9651;49.138;8.900;2023-05-24T22:56:28;12.40;99.90
19037;DHT22;9651;49.138;8.900;2023-05-24T23:00:31;12.40;99.90
19037;DHT22;9651;49.138;8.900;2023-05-24T23:04:34;12.30;99.90
19037;DHT22;9651;49.138;8.900;2023-05-24T23:08:37;12.30;99.90
19037;DHT22;9651;49.138;8.900;2023-05-24T23:12:39;12.30;99.90
19037;DHT22;9651;49.138;8.900;2023-05-24T23:16:42;12.30;99.90
19037;DHT22;9651;49.138;8.900;2023-05-24T23:20:46;12.20;99.90
19037;DHT22;9651;49.138;8.900;2023-05-24T23:24:48;12.10;99.90
19037;DHT22;9651;49.138;8.900;2023-05-24T23:28:49;12.00;99.90
19037;DHT22;9651;49.138;8.900;2023-05-24T23:32:51;11.90;99.90
19037;DHT22;9651;49.138;8.900;2023-05-24T23:36:54;11.80;99.90
19037;DHT22;9651;49.138;8.900;2023-05-24T23:40:57;11.70;99.90
19037;DHT22;9651;49.138;8.900;2023-05-24T23:44:59;11.60;99.90
19037;DHT22;9651;49.138;8.900;2023-05-24T23:49:01;11.60;99.90
19037;DHT22;9651;49.138;8.900;2023-05-24T23:53:04;11.60;99.90
19037;DHT22;9651;49.138;8.900;2023-05-24T23:57:06;11.50;99.90
